Time;durP1;ratioP1;P1;durP2;ratioP2;P2;SDS_P1;SDS_P2;PMS_P1;PMS_P2;Temp;Humidity;BMP_temperature;BMP_pressure;BME280_temperature;BME280_humidity;BME280_pressure;Samples;Min_cycle;Max_cycle;Signal;HPM_P1;HPM_P2
2021/01/12 00:01:56;;;;;;;5.43;4.93;;;11.60;68.80;;;;;;5128915;28;20486;-81
2021/01/12 00:04:23;;;;;;;5.10;4.60;;;11.60;68.70;;;;;;5126382;28;20443;-80
2021/01/12 00:06:50;;;;;;;5.30;4.83;;;11.70;68.60;;;;;;5125207;28;20469;-81
2021/01/12 00:09:17;;;;;;;5.00;4.37;;;11.70;68.80;;;;;;5125413;28;20440;-81
2021/01/12 00:11:46;;;;;;;5.60;5.10;;;11.70;68.70;;;;;;5126845;28;20451;-80
2021/01/12 00:16:54;;;;;;;4.90;4.47;;;11.80;68.60;;;;;;5124124;28;20452;-81
2021/01/12 00:19:22;;;;;;;5.03;4.63;;;11.80;68.50;;;;;;5122982;28;20531;-80
2021/01/12 00:21:49;;;;;;;4.83;4.43;;;11.70;68.70;;;;;;5126617;28;20443;-79
2021/01/12 00:24:16;;;;;;;4.60;4.20;;;11.80;68.40;;;;;;5127919;28;20447;-80
2021/01/12 00:26:43;;;;;;;5.23;4.83;;;11.80;68.70;;;;;;5116890;28;20420;-77
2021/01/12 00:29:09;;;;;;;4.90;4.50;;;11.80;68.60;;;;;;5115485;28;20462;-77
2021/01/12 00:31:38;;;;;;;4.50;4.20;;;11.80;68.60;;;;;;5113968;28;20420;-77
2021/01/12 00:34:05;;;;;;;3.87;3.60;;;11.70;68.70;;;;;;5118979;27;20487;-79
2021/01/12 00:36:38;;;;;;;3.97;3.77;;;11.80;68.70;;;;;;5126101;28;20471;-81
2021/01/12 00:39:05;;;;;;;4.27;3.97;;;11.70;68.80;;;;;;5124667;28;20436;-80
2021/01/12 00:41:33;;;;;;;4.20;3.80;;;11.80;68.70;;;;;;5119781;28;20432;-78
2021/01/12 00:44:00;;;;;;;3.80;3.57;;;11.80;68.70;;;;;;5119062;28;20507;-79
2021/01/12 00:46:27;;;;;;;3.90;3.63;;;11.70;68.80;;;;;;5120385;28;20509;-78
2021/01/12 00:48:54;;;;;;;4.77;4.37;;;11.80;68.80;;;;;;5119883;28;20451;-78
2021/01/12 00:51:21;;;;;;;3.53;3.33;;;11.90;68.60;;;;;;5119574;28;20950;-78
2021/01/12 00:53:49;;;;;;;3.70;3.50;;;11.90;68.30;;;;;;5119324;28;20462;-78
2021/01/12 00:56:30;;;;;;;6.27;4.03;;;11.90;68.50;;;;;;5119908;28;20476;-78
2021/01/12 00:58:57;;;;;;;3.53;3.27;;;11.80;68.70;;;;;;5118795;28;20926;-79
2021/01/12 01:01:24;;;;;;;3.60;3.40;;;11.80;68.80;;;;;;5118823;28;20440;-78
2021/01/12 01:03:51;;;;;;;3.40;3.20;;;11.80;68.90;;;;;;5117523;28;20558;-78
2021/01/12 01:06:18;;;;;;;3.87;3.57;;;11.80;68.90;;;;;;5125449;28;20432;-78
2021/01/12 01:08:45;;;;;;;3.10;2.90;;;11.80;68.80;;;;;;5125504;28;20439;-79
2021/01/12 01:11:13;;;;;;;3.37;3.17;;;11.90;68.80;;;;;;5125797;28;20421;-79
2021/01/12 01:13:40;;;;;;;3.30;3.00;;;11.90;68.70;;;;;;5126273;28;20457;-79
2021/01/12 01:16:07;;;;;;;3.00;2.90;;;11.90;68.70;;;;;;5125480;28;20497;-79
2021/01/12 01:18:34;;;;;;;3.70;3.40;;;11.90;68.60;;;;;;5126591;28;20550;-79
2021/01/12 01:21:01;;;;;;;3.40;3.10;;;12.00;68.60;;;;;;5125821;28;20436;-79
2021/01/12 01:23:28;;;;;;;4.37;3.03;;;11.90;68.60;;;;;;5125110;28;20464;-79
2021/01/12 01:25:55;;;;;;;3.60;3.30;;;11.90;68.60;;;;;;5114123;28;20448;-79
2021/01/12 01:28:23;;;;;;;3.23;3.07;;;11.90;68.70;;;;;;5105836;28;20451;-79
2021/01/12 01:30:50;;;;;;;3.47;3.27;;;11.90;68.70;;;;;;5106044;28;20482;-79
2021/01/12 01:33:17;;;;;;;3.60;3.30;;;11.90;68.60;;;;;;5103935;28;20475;-79
2021/01/12 01:35:44;;;;;;;2.80;2.70;;;11.90;68.70;;;;;;5105334;28;20468;-79
2021/01/12 01:38:11;;;;;;;6.30;2.93;;;12.00;68.70;;;;;;5105683;28;20441;-79
2021/01/12 01:40:37;;;;;;;2.60;2.50;;;12.00;68.70;;;;;;5105778;28;20456;-79
2021/01/12 01:43:04;;;;;;;2.90;2.70;;;11.90;68.80;;;;;;5105659;28;20452;-81
2021/01/12 01:45:32;;;;;;;3.57;3.27;;;11.80;69.00;;;;;;5105272;28;20429;-81
2021/01/12 01:48:01;;;;;;;2.73;2.63;;;12.00;68.70;;;;;;5120873;28;20446;-81
2021/01/12 01:50:28;;;;;;;2.50;2.40;;;12.00;68.80;;;;;;5119510;28;20427;-81
2021/01/12 01:52:56;;;;;;;2.40;2.30;;;11.90;68.80;;;;;;5109168;28;20476;-80
2021/01/12 01:55:25;;;;;;;2.83;2.63;;;12.00;68.90;;;;;;5104339;28;20467;-80
2021/01/12 01:57:51;;;;;;;6.33;2.97;;;12.00;68.90;;;;;;5105041;28;20445;-80
2021/01/12 02:00:19;;;;;;;2.83;2.73;;;11.90;68.80;;;;;;5104951;28;20429;-80
2021/01/12 02:02:54;;;;;;;2.70;2.50;;;12.00;68.90;;;;;;5104771;28;20510;-80
2021/01/12 02:05:24;;;;;;;2.40;2.30;;;11.90;69.00;;;;;;5106564;28;20440;-80
2021/01/12 02:07:50;;;;;;;2.60;2.50;;;12.00;68.90;;;;;;5107038;28;20437;-81
2021/01/12 02:10:17;;;;;;;2.73;2.63;;;12.00;68.70;;;;;;5106476;28;20441;-81
2021/01/12 02:12:47;;;;;;;2.77;2.63;;;12.00;68.70;;;;;;5107255;28;20464;-81
2021/01/12 02:15:17;;;;;;;2.40;2.30;;;12.00;68.90;;;;;;5106500;28;20441;-81
2021/01/12 02:17:44;;;;;;;2.27;2.17;;;12.00;68.80;;;;;;5105701;28;20440;-81
2021/01/12 02:20:14;;;;;;;2.47;2.30;;;12.00;68.70;;;;;;5105877;28;20433;-80
2021/01/12 02:22:43;;;;;;;2.80;2.63;;;12.00;68.70;;;;;;5106152;28;20468;-80
2021/01/12 02:25:11;;;;;;;2.50;2.40;;;12.00;68.70;;;;;;5103655;28;20445;-81
2021/01/12 02:27:38;;;;;;;2.80;2.57;;;12.00;68.90;;;;;;5096545;28;20459;-80
2021/01/12 02:30:06;;;;;;;2.07;1.97;;;12.00;68.70;;;;;;5095947;28;20433;-80
2021/01/12 02:32:33;;;;;;;2.67;2.57;;;12.10;68.80;;;;;;5095674;28;20469;-81
2021/01/12 02:35:00;;;;;;;2.47;2.37;;;12.10;68.80;;;;;;5095758;28;20479;-80
2021/01/12 02:37:27;;;;;;;2.50;2.40;;;12.10;68.80;;;;;;5095037;28;20529;-80
2021/01/12 02:39:57;;;;;;;2.17;2.07;;;12.10;68.80;;;;;;5095166;28;20519;-81
2021/01/12 02:42:25;;;;;;;2.20;2.10;;;12.10;68.80;;;;;;5094785;28;20465;-81
2021/01/12 02:44:52;;;;;;;1.87;1.77;;;12.10;68.70;;;;;;5095485;28;20463;-81
2021/01/12 02:47:19;;;;;;;2.43;2.33;;;12.10;69.00;;;;;;5095356;28;20429;-80
2021/01/12 02:49:46;;;;;;;2.40;2.30;;;12.20;68.70;;;;;;5095038;28;20448;-81
2021/01/12 02:52:13;;;;;;;2.43;2.13;;;12.10;68.70;;;;;;5094669;28;20501;-81
2021/01/12 02:54:41;;;;;;;2.50;2.40;;;12.20;68.80;;;;;;5094824;28;20433;-81
2021/01/12 02:57:08;;;;;;;2.20;2.10;;;12.00;69.00;;;;;;5095035;28;20472;-81
2021/01/12 02:59:36;;;;;;;2.30;2.20;;;12.10;69.10;;;;;;5095075;28;20440;-81
2021/01/12 03:02:03;;;;;;;2.20;2.10;;;12.20;68.80;;;;;;5094616;28;20544;-81
2021/01/12 03:04:30;;;;;;;2.07;1.87;;;12.20;68.60;;;;;;5095412;28;20540;-82
2021/01/12 03:06:57;;;;;;;1.93;1.77;;;12.20;68.70;;;;;;5095370;28;20437;-81
2021/01/12 03:09:23;;;;;;;1.90;1.80;;;12.20;68.70;;;;;;5099080;28;20437;-81
2021/01/12 03:11:51;;;;;;;2.13;2.03;;;12.10;68.70;;;;;;5097207;28;20429;-81
2021/01/12 03:14:18;;;;;;;2.17;2.03;;;12.20;68.90;;;;;;5094397;28;20437;-81
2021/01/12 03:16:46;;;;;;;2.10;2.00;;;12.20;68.80;;;;;;5094641;28;20484;-81
2021/01/12 03:19:13;;;;;;;2.00;1.90;;;12.20;68.70;;;;;;5094945;28;20463;-81
2021/01/12 03:21:40;;;;;;;2.57;2.40;;;12.20;68.90;;;;;;5094344;28;20503;-81
2021/01/12 03:24:07;;;;;;;2.10;2.00;;;12.20;68.60;;;;;;5096187;28;20448;-81
2021/01/12 03:26:34;;;;;;;2.37;2.17;;;12.20;68.80;;;;;;5094595;28;20452;-81
2021/01/12 03:29:01;;;;;;;2.00;1.90;;;12.20;68.90;;;;;;5100112;28;20436;-81
2021/01/12 03:31:28;;;;;;;2.33;2.17;;;12.20;69.00;;;;;;5114974;28;20444;-81
2021/01/12 03:33:56;;;;;;;2.10;2.00;;;12.20;68.80;;;;;;5114638;28;20481;-81
2021/01/12 03:36:23;;;;;;;2.07;1.97;;;12.20;68.80;;;;;;5115693;28;20493;-81
2021/01/12 03:38:49;;;;;;;2.27;2.17;;;12.20;68.90;;;;;;5101002;28;20460;-81
2021/01/12 03:41:16;;;;;;;1.90;1.80;;;12.20;68.90;;;;;;5094179;28;20486;-81
2021/01/12 03:43:43;;;;;;;2.20;2.00;;;12.20;68.80;;;;;;5094504;28;20453;-81
2021/01/12 03:46:13;;;;;;;2.10;2.00;;;12.20;68.80;;;;;;5094681;28;20429;-81
2021/01/12 03:48:40;;;;;;;2.10;1.70;;;12.20;69.20;;;;;;5094121;28;20707;-81
2021/01/12 03:51:08;;;;;;;1.80;1.70;;;12.10;69.20;;;;;;5093139;28;20476;-81
2021/01/12 03:53:35;;;;;;;2.00;1.90;;;12.20;69.10;;;;;;5093627;28;20510;-81
2021/01/12 03:56:02;;;;;;;1.77;1.67;;;12.20;69.10;;;;;;5093696;28;20495;-81
2021/01/12 03:58:30;;;;;;;2.10;2.00;;;12.30;68.90;;;;;;5093925;28;20440;-81
2021/01/12 04:00:57;;;;;;;3.00;1.90;;;12.30;68.90;;;;;;5094017;28;20432;-81
2021/01/12 04:03:23;;;;;;;1.77;1.70;;;12.30;68.90;;;;;;5093671;28;20449;-81
2021/01/12 04:05:51;;;;;;;1.73;1.73;;;12.30;68.90;;;;;;5094472;28;20475;-81
2021/01/12 04:08:19;;;;;;;2.00;1.90;;;12.30;68.90;;;;;;5094485;28;20444;-81
2021/01/12 04:10:46;;;;;;;2.00;1.90;;;12.30;69.00;;;;;;5094038;28;20566;-81
2021/01/12 04:13:13;;;;;;;2.00;1.90;;;12.20;69.00;;;;;;5093527;28;20492;-81
2021/01/12 04:15:40;;;;;;;1.47;1.47;;;12.30;68.80;;;;;;5093081;28;20455;-81
2021/01/12 04:18:07;;;;;;;2.03;1.93;;;12.40;68.70;;;;;;5093321;28;20581;-81
2021/01/12 04:20:34;;;;;;;1.90;1.80;;;12.40;68.80;;;;;;5093499;28;20464;-81
2021/01/12 04:23:01;;;;;;;1.87;1.77;;;12.30;68.90;;;;;;5093588;28;20461;-81
2021/01/12 04:25:29;;;;;;;2.03;1.70;;;12.30;68.80;;;;;;5093716;28;20444;-81
2021/01/12 04:27:56;;;;;;;1.50;1.50;;;12.40;68.80;;;;;;5092989;28;20448;-81
2021/01/12 04:30:23;;;;;;;1.80;1.80;;;12.40;68.80;;;;;;5093464;28;20440;-81
2021/01/12 04:32:50;;;;;;;1.47;1.47;;;12.40;68.70;;;;;;5092739;28;20903;-81
2021/01/12 04:35:17;;;;;;;1.80;1.70;;;12.40;68.90;;;;;;5093397;28;20433;-81
2021/01/12 04:37:44;;;;;;;1.40;1.30;;;12.30;68.90;;;;;;5093375;28;20472;-81
2021/01/12 04:40:11;;;;;;;1.70;1.60;;;12.40;69.00;;;;;;5093255;28;20468;-81
2021/01/12 04:42:39;;;;;;;1.87;1.77;;;12.40;68.90;;;;;;5093027;28;20518;-81
2021/01/12 04:45:06;;;;;;;1.77;1.67;;;12.30;68.90;;;;;;5092715;28;20502;-81
2021/01/12 04:47:33;;;;;;;1.67;1.57;;;12.40;68.90;;;;;;5093590;28;20461;-81
2021/01/12 04:50:01;;;;;;;1.40;1.30;;;12.40;69.00;;;;;;5093677;28;20433;-81
2021/01/12 04:52:29;;;;;;;1.90;1.80;;;12.40;69.00;;;;;;5093296;28;20459;-81
2021/01/12 04:55:01;;;;;;;1.60;1.50;;;12.40;68.90;;;;;;5093571;28;20444;-81
2021/01/12 04:57:28;;;;;;;1.63;1.63;;;12.30;69.00;;;;;;5093074;28;20534;-81
2021/01/12 04:59:57;;;;;;;1.40;1.40;;;12.40;69.10;;;;;;5093146;28;20453;-81
2021/01/12 05:02:24;;;;;;;1.93;1.77;;;12.40;68.90;;;;;;5092567;28;20489;-81
2021/01/12 05:04:51;;;;;;;1.70;1.60;;;12.40;68.90;;;;;;5093284;28;20444;-81
2021/01/12 05:07:19;;;;;;;1.60;1.40;;;12.40;69.10;;;;;;5106196;28;20452;-81
2021/01/12 05:09:46;;;;;;;1.80;1.70;;;12.40;69.00;;;;;;5114282;28;20461;-81
2021/01/12 05:12:13;;;;;;;1.60;1.60;;;12.40;68.70;;;;;;5112937;28;20448;-81
2021/01/12 05:14:40;;;;;;;2.07;1.40;;;12.40;69.00;;;;;;5113355;28;20432;-81
2021/01/12 05:17:07;;;;;;;1.60;1.50;;;12.40;68.90;;;;;;5093023;28;20529;-81
2021/01/12 05:19:34;;;;;;;1.50;1.50;;;12.40;68.80;;;;;;5093253;28;20429;-81
2021/01/12 05:22:03;;;;;;;1.60;1.50;;;12.50;68.80;;;;;;5101619;28;20500;-81
2021/01/12 05:24:31;;;;;;;1.70;1.60;;;12.50;68.80;;;;;;5102025;28;20433;-81
2021/01/12 05:27:04;;;;;;;1.43;1.43;;;12.40;68.90;;;;;;5096969;28;20428;-81
2021/01/12 05:29:33;;;;;;;1.73;1.63;;;12.40;69.00;;;;;;5093689;28;20536;-81
2021/01/12 05:32:01;;;;;;;1.63;1.57;;;12.50;68.80;;;;;;5092191;28;20461;-81
2021/01/12 05:34:29;;;;;;;1.70;1.60;;;12.50;68.80;;;;;;5092184;28;20448;-81
2021/01/12 05:36:56;;;;;;;1.50;1.50;;;12.50;68.90;;;;;;5092730;28;20526;-81
2021/01/12 05:39:24;;;;;;;1.60;1.50;;;12.50;68.80;;;;;;5092933;28;20472;-81
2021/01/12 05:41:52;;;;;;;1.20;1.20;;;12.50;68.80;;;;;;5096827;28;20467;-81
2021/01/12 05:44:21;;;;;;;1.23;1.23;;;12.50;69.00;;;;;;5097498;28;20459;-81
2021/01/12 05:46:49;;;;;;;1.40;1.40;;;12.50;69.70;;;;;;5096533;28;20437;-81
2021/01/12 05:49:17;;;;;;;1.33;1.33;;;12.50;69.10;;;;;;5097158;28;20432;-81
2021/01/12 05:51:46;;;;;;;1.40;1.40;;;12.50;68.90;;;;;;5096838;28;20448;-81
2021/01/12 05:54:31;;;;;;;1.37;1.37;;;12.50;69.10;;;;;;5096896;28;20444;-81
2021/01/12 05:56:59;;;;;;;1.20;1.20;;;12.50;69.10;;;;;;5097177;28;20502;-81
2021/01/12 05:59:26;;;;;;;1.50;1.50;;;12.50;69.20;;;;;;5095929;28;20437;-81
2021/01/12 06:01:53;;;;;;;1.40;1.40;;;12.60;69.10;;;;;;5096099;28;20449;-81
2021/01/12 06:04:20;;;;;;;1.70;1.60;;;12.60;69.00;;;;;;5096586;28;20869;-81
2021/01/12 06:06:50;;;;;;;1.10;1.10;;;12.60;69.00;;;;;;5097400;28;20425;-81
2021/01/12 06:09:18;;;;;;;1.20;1.20;;;12.60;69.10;;;;;;5097934;28;20448;-81
2021/01/12 06:11:46;;;;;;;1.50;1.50;;;12.60;69.00;;;;;;5096230;28;20484;-81
2021/01/12 06:14:13;;;;;;;1.10;1.10;;;12.50;69.20;;;;;;5096128;28;20437;-81
2021/01/12 06:16:41;;;;;;;1.60;1.60;;;12.50;69.30;;;;;;5095941;28;20477;-81
2021/01/12 06:19:17;;;;;;;1.47;1.37;;;12.50;69.20;;;;;;5096279;28;20447;-81
2021/01/12 06:22:18;;;;;;;1.80;1.70;;;12.60;69.20;;;;;;5095260;28;20444;-81
2021/01/12 06:24:53;;;;;;;1.20;1.20;;;12.60;69.10;;;;;;5097082;28;20489;-81
2021/01/12 06:27:24;;;;;;;1.33;1.30;;;12.60;69.30;;;;;;5096474;28;20990;-81
2021/01/12 06:29:51;;;;;;;1.33;1.23;;;12.60;69.20;;;;;;5097021;28;20432;-81
2021/01/12 06:32:18;;;;;;;1.17;1.17;;;12.50;69.40;;;;;;5096168;28;20493;-81
2021/01/12 06:34:45;;;;;;;1.43;1.43;;;12.50;69.50;;;;;;5101626;28;20428;-81
2021/01/12 06:37:12;;;;;;;1.47;1.37;;;12.50;69.50;;;;;;5117017;28;20468;-80
2021/01/12 06:39:41;;;;;;;1.40;1.30;;;12.60;69.50;;;;;;5116754;28;20462;-80
2021/01/12 06:42:09;;;;;;;1.33;1.33;;;12.60;69.40;;;;;;5117042;28;20447;-80
2021/01/12 06:44:36;;;;;;;1.20;1.20;;;12.60;69.30;;;;;;5116552;27;20462;-80
2021/01/12 06:47:04;;;;;;;1.10;1.10;;;12.60;69.40;;;;;;5116812;27;20471;-80
2021/01/12 06:49:32;;;;;;;1.10;1.10;;;12.60;69.40;;;;;;5116624;28;20461;-80
2021/01/12 06:52:02;;;;;;;1.30;1.20;;;12.60;69.50;;;;;;5115182;28;20486;-80
2021/01/12 06:54:33;;;;;;;1.53;1.47;;;12.60;69.50;;;;;;5117176;28;20789;-80
2021/01/12 06:57:02;;;;;;;2.23;1.43;;;12.60;69.50;;;;;;5116312;28;20468;-81
2021/01/12 06:59:47;;;;;;;1.10;1.10;;;12.60;69.70;;;;;;5116304;28;20432;-80
2021/01/12 07:02:21;;;;;;;1.43;1.33;;;12.60;69.70;;;;;;5115772;28;20452;-80
2021/01/12 07:04:55;;;;;;;2.13;1.40;;;12.50;69.70;;;;;;5115917;28;20442;-81
2021/01/12 07:07:22;;;;;;;1.50;1.40;;;12.50;69.80;;;;;;5115829;28;20428;-80
2021/01/12 07:09:49;;;;;;;1.37;1.37;;;12.50;69.80;;;;;;5116087;28;20439;-81
2021/01/12 07:12:20;;;;;;;1.20;1.20;;;12.50;69.80;;;;;;5116183;28;20456;-81
2021/01/12 07:14:48;;;;;;;1.40;1.30;;;12.50;69.90;;;;;;5115769;28;20481;-81
2021/01/12 07:17:14;;;;;;;1.40;1.30;;;12.50;69.80;;;;;;5115800;27;21039;-81
2021/01/12 07:19:41;;;;;;;1.20;1.20;;;12.50;70.00;;;;;;5115443;28;20519;-81
2021/01/12 07:22:16;;;;;;;1.10;1.10;;;12.50;70.00;;;;;;5115669;28;20503;-81
2021/01/12 07:24:44;;;;;;;1.50;1.40;;;12.50;70.10;;;;;;5115843;28;20472;-81
2021/01/12 07:27:13;;;;;;;1.20;1.20;;;12.50;69.80;;;;;;5116272;28;20473;-81
2021/01/12 07:29:50;;;;;;;1.50;1.40;;;12.50;69.70;;;;;;5095677;28;20471;-81
2021/01/12 07:32:27;;;;;;;1.50;1.40;;;12.60;69.80;;;;;;5095012;28;20457;-81
2021/01/12 07:34:55;;;;;;;1.13;1.13;;;12.50;69.80;;;;;;5095281;28;20498;-81
2021/01/12 07:37:32;;;;;;;2.00;1.23;;;12.50;69.90;;;;;;5103674;28;20476;-79
2021/01/12 07:39:58;;;;;;;1.40;1.40;;;12.50;70.00;;;;;;5115025;28;20432;-82
2021/01/12 07:42:25;;;;;;;2.07;1.50;;;12.50;70.10;;;;;;5115018;28;20456;-82
2021/01/12 07:44:53;;;;;;;1.20;1.20;;;12.50;70.10;;;;;;5115519;28;20485;-82
2021/01/12 07:47:20;;;;;;;1.43;1.37;;;12.50;70.20;;;;;;5095556;28;20486;-82
2021/01/12 07:49:49;;;;;;;1.33;1.33;;;12.50;70.10;;;;;;5094163;28;20433;-82
2021/01/12 07:52:18;;;;;;;1.27;1.27;;;12.50;70.00;;;;;;5094861;28;20460;-81
2021/01/12 07:54:45;;;;;;;1.60;1.50;;;12.60;70.00;;;;;;5094837;28;20441;-81
2021/01/12 07:57:12;;;;;;;1.30;1.30;;;12.60;70.10;;;;;;5093992;28;20512;-82
2021/01/12 07:59:39;;;;;;;1.10;1.10;;;12.60;69.80;;;;;;5094482;28;20814;-81
2021/01/12 08:02:07;;;;;;;1.30;1.30;;;12.60;70.00;;;;;;5093372;28;20460;-82
2021/01/12 08:04:34;;;;;;;1.40;1.30;;;12.50;70.10;;;;;;5093263;28;20448;-82
2021/01/12 08:07:01;;;;;;;1.07;1.07;;;12.50;70.10;;;;;;5093769;28;20441;-82
2021/01/12 08:09:28;;;;;;;1.40;1.40;;;12.60;69.90;;;;;;5093589;28;20433;-81
2021/01/12 08:12:00;;;;;;;1.53;1.40;;;12.60;70.00;;;;;;5093638;28;20456;-82
2021/01/12 08:14:27;;;;;;;1.77;1.13;;;12.60;70.00;;;;;;5093800;28;20468;-82
2021/01/12 08:16:54;;;;;;;0.97;0.97;;;12.60;69.90;;;;;;5093515;28;20510;-82
2021/01/12 08:19:23;;;;;;;2.37;1.13;;;12.60;69.90;;;;;;5094082;28;20444;-82
2021/01/12 08:21:50;;;;;;;1.50;1.30;;;12.60;70.00;;;;;;5104334;28;20465;-82
2021/01/12 08:24:20;;;;;;;1.20;1.20;;;12.60;70.60;;;;;;5114166;28;20463;-82
2021/01/12 08:26:48;;;;;;;1.53;1.40;;;12.60;69.90;;;;;;5113628;28;20524;-81
2021/01/12 08:29:15;;;;;;;1.63;1.30;;;12.60;70.00;;;;;;5113903;28;20436;-82
2021/01/12 08:31:45;;;;;;;1.50;1.40;;;12.60;70.10;;;;;;5113006;27;20549;-82
2021/01/12 08:34:13;;;;;;;1.00;1.00;;;12.60;69.80;;;;;;5117161;27;20458;-83
2021/01/12 08:36:41;;;;;;;1.50;1.40;;;12.70;69.70;;;;;;5134480;27;20423;-81
2021/01/12 08:39:24;;;;;;;1.50;1.40;;;12.70;69.60;;;;;;5123806;27;20463;-83
2021/01/12 08:41:51;;;;;;;1.07;1.07;;;12.70;69.80;;;;;;5113683;28;20476;-82
2021/01/12 08:44:17;;;;;;;2.00;1.63;;;12.70;69.70;;;;;;5134301;27;20503;-82
2021/01/12 08:46:44;;;;;;;1.50;1.40;;;12.60;69.80;;;;;;5134123;27;20423;-81
2021/01/12 08:49:11;;;;;;;1.20;1.10;;;12.70;69.60;;;;;;5115459;28;20451;-82
2021/01/12 08:51:38;;;;;;;1.30;1.20;;;12.70;69.70;;;;;;5124323;28;20938;-82
2021/01/12 08:54:07;;;;;;;2.00;1.20;;;12.70;69.90;;;;;;5134500;27;20860;-82
2021/01/12 08:56:34;;;;;;;1.37;1.20;;;12.70;69.80;;;;;;5127708;28;20475;-82
2021/01/12 08:59:04;;;;;;;1.23;1.00;;;12.70;69.70;;;;;;5133088;28;20435;-83
2021/01/12 09:01:31;;;;;;;1.77;1.20;;;12.70;69.50;;;;;;5121093;28;20469;-81
2021/01/12 09:04:05;;;;;;;1.10;1.10;;;12.70;69.60;;;;;;5128488;28;20527;-82
2021/01/12 09:06:33;;;;;;;1.07;1.07;;;12.80;69.60;;;;;;5121752;28;20477;-79
2021/01/12 09:09:11;;;;;;;1.10;1.10;;;12.80;69.60;;;;;;5126693;28;20829;-79
2021/01/12 09:11:39;;;;;;;1.40;1.20;;;12.70;69.90;;;;;;5116208;28;20496;-80
2021/01/12 09:14:07;;;;;;;1.30;1.20;;;12.70;69.90;;;;;;5113713;27;20436;-77
2021/01/12 09:16:34;;;;;;;1.30;1.30;;;12.70;69.90;;;;;;5116700;28;20458;-78
2021/01/12 09:19:12;;;;;;;1.33;1.13;;;12.80;69.70;;;;;;5119428;27;20440;-78
2021/01/12 09:21:39;;;;;;;2.30;1.50;;;12.90;69.60;;;;;;5115154;28;20423;-79
2021/01/12 09:24:08;;;;;;;1.53;1.43;;;12.90;69.60;;;;;;5112401;28;20496;-78
2021/01/12 09:26:36;;;;;;;1.20;1.10;;;13.00;69.40;;;;;;5116521;28;20428;-78
2021/01/12 09:29:03;;;;;;;1.20;1.20;;;13.00;69.30;;;;;;5116951;28;20428;-79
2021/01/12 09:31:30;;;;;;;1.30;1.20;;;13.00;69.50;;;;;;5115344;27;20537;-78
2021/01/12 09:33:57;;;;;;;1.10;1.10;;;13.30;69.20;;;;;;5099630;28;20445;-79
2021/01/12 09:36:31;;;;;;;1.53;1.43;;;13.60;68.90;;;;;;5114857;27;20431;-78
2021/01/12 09:38:58;;;;;;;1.97;1.40;;;13.80;68.10;;;;;;5137845;27;20482;-78
2021/01/12 09:41:25;;;;;;;1.30;1.20;;;14.00;67.90;;;;;;5115532;27;20464;-77
2021/01/12 09:43:53;;;;;;;1.60;1.50;;;14.20;67.30;;;;;;5095728;28;20453;-78
2021/01/12 09:46:20;;;;;;;1.00;1.00;;;14.50;66.80;;;;;;5096027;28;20443;-78
2021/01/12 09:48:47;;;;;;;2.40;1.30;;;14.60;66.70;;;;;;5096005;28;20429;-78
2021/01/12 09:51:14;;;;;;;1.10;1.10;;;14.60;66.60;;;;;;5096423;28;20509;-78
2021/01/12 09:53:41;;;;;;;1.37;1.37;;;14.70;67.30;;;;;;5103059;28;20493;-77
2021/01/12 09:56:10;;;;;;;1.30;1.20;;;14.90;66.40;;;;;;5114476;27;20455;-78
2021/01/12 09:58:37;;;;;;;1.40;1.30;;;15.20;65.80;;;;;;5115036;27;20530;-78
2021/01/12 10:01:05;;;;;;;1.60;1.50;;;15.50;65.40;;;;;;5136889;27;20502;-78
2021/01/12 10:03:32;;;;;;;1.50;1.40;;;15.80;64.80;;;;;;5137154;27;20487;-78
2021/01/12 10:05:59;;;;;;;2.50;1.60;;;16.10;64.40;;;;;;5132200;27;20512;-78
2021/01/12 10:08:26;;;;;;;1.40;1.30;;;16.50;63.90;;;;;;5102151;28;20433;-78
2021/01/12 10:10:53;;;;;;;1.63;1.50;;;16.80;63.50;;;;;;5096324;28;20469;-77
2021/01/12 10:13:20;;;;;;;1.70;1.60;;;17.20;62.70;;;;;;5095815;28;20452;-78
2021/01/12 10:15:47;;;;;;;2.57;2.20;;;17.50;62.20;;;;;;5107482;27;20516;-79
2021/01/12 10:18:15;;;;;;;1.70;1.60;;;17.90;61.50;;;;;;5096354;28;20484;-78
2021/01/12 10:20:42;;;;;;;2.53;1.90;;;18.20;61.00;;;;;;5097986;28;20473;-78
2021/01/12 10:23:09;;;;;;;1.60;1.50;;;18.60;60.40;;;;;;5096892;28;20496;-78
2021/01/12 10:25:36;;;;;;;2.80;1.50;;;18.80;60.00;;;;;;5096464;28;20461;-78
2021/01/12 10:28:04;;;;;;;2.00;1.63;;;19.10;59.60;;;;;;5097905;28;20461;-78
2021/01/12 10:30:31;;;;;;;6.27;1.90;;;19.40;59.00;;;;;;5096322;28;20465;-78
2021/01/12 10:32:58;;;;;;;1.80;1.70;;;19.60;58.90;;;;;;5125595;27;20459;-78
2021/01/12 10:35:26;;;;;;;1.73;1.50;;;19.80;58.60;;;;;;5115583;27;20439;-78
2021/01/12 10:37:53;;;;;;;3.70;1.90;;;20.20;58.20;;;;;;5140157;27;20475;-78
2021/01/12 10:40:21;;;;;;;1.80;1.70;;;20.50;57.80;;;;;;5137310;27;20433;-78
2021/01/12 10:42:48;;;;;;;2.50;1.60;;;20.60;57.50;;;;;;5124565;27;20464;-78
2021/01/12 10:45:15;;;;;;;1.50;1.40;;;21.00;57.10;;;;;;5136424;27;20914;-78
2021/01/12 10:47:43;;;;;;;1.77;1.67;;;21.10;56.80;;;;;;5137036;27;20458;-78
2021/01/12 10:50:14;;;;;;;1.70;1.60;;;21.40;56.60;;;;;;5136519;27;20435;-78
2021/01/12 10:52:59;;;;;;;3.10;1.60;;;21.80;56.10;;;;;;5114929;27;20489;-79
2021/01/12 10:55:44;;;;;;;1.80;1.70;;;22.10;55.70;;;;;;5115381;28;20415;-79
2021/01/12 10:58:13;;;;;;;2.00;1.80;;;22.40;55.30;;;;;;5115814;28;20406;-78
2021/01/12 11:00:40;;;;;;;1.63;1.53;;;22.50;54.90;;;;;;5120102;27;20407;-78
2021/01/12 11:03:08;;;;;;;5.90;1.77;;;21.90;55.50;;;;;;5122839;27;20460;-78
2021/01/12 11:05:39;;;;;;;1.93;1.77;;;21.50;56.50;;;;;;5119607;28;20432;-79
2021/01/12 11:08:10;;;;;;;1.50;1.40;;;21.10;57.30;;;;;;5119873;28;20487;-79
2021/01/12 11:10:36;;;;;;;2.60;1.60;;;21.30;57.60;;;;;;5115148;27;20456;-78
2021/01/12 11:13:04;;;;;;;2.30;1.83;;;21.80;56.60;;;;;;5122650;28;20486;-78
2021/01/12 11:15:32;;;;;;;2.00;1.60;;;22.10;56.00;;;;;;5116330;28;20448;-79
2021/01/12 11:17:59;;;;;;;2.13;1.90;;;22.40;55.70;;;;;;5118293;28;20457;-79
2021/01/12 11:20:30;;;;;;;2.20;1.90;;;22.70;55.10;;;;;;5121462;27;20424;-78
2021/01/12 11:22:57;;;;;;;5.63;2.00;;;23.10;54.70;;;;;;5134630;27;20463;-78
2021/01/12 11:25:25;;;;;;;3.80;1.83;;;23.50;54.00;;;;;;5122862;27;20422;-78
2021/01/12 11:27:52;;;;;;;1.50;1.40;;;23.80;53.60;;;;;;5115834;27;20445;-78
2021/01/12 11:30:20;;;;;;;1.77;1.53;;;24.80;53.10;;;;;;5140061;27;20414;-78
2021/01/12 11:32:48;;;;;;;1.60;1.50;;;26.60;51.10;;;;;;5133328;27;20430;-78
2021/01/12 11:35:15;;;;;;;1.70;1.53;;;27.90;48.80;;;;;;5103429;28;20470;-78
2021/01/12 11:37:45;;;;;;;1.77;1.67;;;28.80;46.70;;;;;;5113357;27;20422;-78
2021/01/12 11:40:13;;;;;;;1.77;1.67;;;29.50;45.20;;;;;;5119645;28;20496;-78
2021/01/12 11:42:41;;;;;;;1.90;1.70;;;30.50;43.70;;;;;;5102406;28;20551;-79
2021/01/12 11:45:09;;;;;;;2.30;2.10;;;31.30;41.70;;;;;;5107766;27;20432;-79
2021/01/12 11:47:36;;;;;;;1.67;1.57;;;32.30;40.20;;;;;;5117079;28;20518;-78
2021/01/12 11:50:08;;;;;;;2.60;1.60;;;32.80;38.80;;;;;;5114627;28;20459;-79
2021/01/12 11:52:36;;;;;;;1.60;1.50;;;33.60;37.50;;;;;;5102488;28;20465;-80
2021/01/12 11:55:05;;;;;;;1.30;1.30;;;34.40;36.20;;;;;;5137943;27;20449;-80
2021/01/12 11:57:31;;;;;;;1.70;1.60;;;35.00;35.20;;;;;;5143590;27;20990;-80
2021/01/12 11:59:59;;;;;;;1.23;1.13;;;35.50;34.10;;;;;;5143947;27;20428;-80
2021/01/12 12:02:26;;;;;;;1.40;1.30;;;36.50;32.30;;;;;;5136220;27;20456;-80
2021/01/12 12:04:53;;;;;;;1.20;1.20;;;37.20;31.00;;;;;;5122508;28;20460;-80
2021/01/12 12:07:21;;;;;;;1.20;1.10;;;37.80;30.00;;;;;;5122837;28;20459;-80
2021/01/12 12:09:48;;;;;;;1.57;1.50;;;38.40;29.00;;;;;;5122517;28;20450;-80
2021/01/12 12:12:16;;;;;;;1.13;1.03;;;38.80;28.50;;;;;;5107526;28;20514;-80
2021/01/12 12:14:43;;;;;;;1.80;1.10;;;39.30;28.00;;;;;;5102138;28;20443;-80
2021/01/12 12:17:11;;;;;;;1.03;1.03;;;39.70;27.20;;;;;;5101573;28;20440;-80
2021/01/12 12:19:38;;;;;;;0.97;0.97;;;40.30;26.80;;;;;;5109450;28;20442;-80
2021/01/12 12:22:05;;;;;;;2.90;1.07;;;40.50;26.40;;;;;;5100407;28;20464;-80
2021/01/12 12:24:32;;;;;;;1.23;1.17;;;40.70;26.20;;;;;;5100312;28;20613;-80
2021/01/12 12:27:00;;;;;;;1.30;1.20;;;41.10;25.80;;;;;;5097985;28;20478;-79
2021/01/12 12:29:27;;;;;;;3.93;1.40;;;33.50;20.60;;;;;;5127901;27;20990;-79
2021/01/12 12:31:56;;;;;;;8.37;1.23;;;29.80;25.00;;;;;;5120304;28;20563;-79
2021/01/12 12:34:24;;;;;;;3.67;1.33;;;25.90;30.00;;;;;;5120983;28;20434;-79
2021/01/12 12:36:51;;;;;;;15.17;5.20;;;22.00;31.60;;;;;;5116846;28;20505;-78
2021/01/12 12:39:18;;;;;;;3.03;1.80;;;20.80;30.50;;;;;;5113818;28;20427;-78
2021/01/12 12:41:45;;;;;;;4.20;1.90;;;18.60;33.90;;;;;;5103607;28;20429;-78
2021/01/12 12:44:12;;;;;;;3.83;1.57;;;18.80;35.40;;;;;;5095446;28;20411;-77
2021/01/12 12:46:39;;;;;;;7.90;1.60;;;15.80;39.10;;;;;;5104084;28;20444;-79
2021/01/12 12:49:06;;;;;;;5.70;1.53;;;12.80;43.40;;;;;;5115819;28;20482;-80
2021/01/12 12:51:36;;;;;;;5.80;1.40;;;12.90;44.90;;;;;;5120756;28;20440;-79
2021/01/12 12:54:05;;;;;;;9.70;1.53;;;14.50;43.90;;;;;;5120749;28;20444;-80
2021/01/12 12:56:32;;;;;;;4.20;1.20;;;13.40;44.00;;;;;;5122591;28;20489;-79